FYRN

Rhino Camp Airport

Rhino Camp, Namibia
METAR FYRN 250500Z 18007KT CAVOK 17/09 Q1021
Observed Flight Rules
May-25 @ 05:00 UTC (18 minutes ago) Visual Flight Rules
Wind Visibility Clouds
180° at 7 knots 10,000+ meters
  • Clear skies
Temperatures Readings
Current 17°C / 63°F
Dewpoint 9°C / 48°F
Humidity 59%
Altimeter 30.15" Hg
Pressure 1021 hPa
Elevation 756
METAR FYRN 250500Z 18007KT CAVOK 17/09 Q1021
Observed Flight Rules
May-25 @ 05:00 UTC
(18 minutes ago)
VFR
Wind Visibility
180° at 7 knots 10,000+ meters
Clouds
  • Clear skies
Temperature Dewpoint
17°C / 63°F 9°C / 48°F
Humidity Altimeter Pressure
59% 30.15" Hg 1021 hPa